Time;durP1;ratioP1;P1;durP2;ratioP2;P2;SDS_P1;SDS_P2;PMS_P1;PMS_P2;Temp;Humidity;BMP_temperature;BMP_pressure;BME280_temperature;BME280_humidity;BME280_pressure;Samples;Min_cycle;Max_cycle;Signal;HPM_P1;HPM_P2
2022/07/16 00:02:47;;;;;;;5.13;2.95;;;;;;;;;;4973195;28;20043;-72
2022/07/16 00:05:13;;;;;;;9.48;3.40;;;;;;;;;;4973268;28;20027;-68
2022/07/16 00:07:39;;;;;;;9.13;3.40;;;;;;;;;;4972815;28;20042;-67
2022/07/16 00:10:05;;;;;;;8.02;3.28;;;;;;;;;;4972618;28;20023;-67
2022/07/16 00:12:31;;;;;;;7.95;3.20;;;;;;;;;;4973051;28;20039;-67
2022/07/16 00:14:58;;;;;;;6.78;3.28;;;;;;;;;;4975863;28;20049;-67
2022/07/16 00:17:23;;;;;;;10.90;3.30;;;;;;;;;;4976304;28;20030;-66
2022/07/16 00:19:49;;;;;;;16.67;4.00;;;;;;;;;;4975270;28;20462;-68
2022/07/16 00:22:15;;;;;;;6.93;3.03;;;;;;;;;;4976133;28;20038;-68
2022/07/16 00:24:41;;;;;;;8.02;3.20;;;;;;;;;;4975933;28;20367;-71
2022/07/16 00:27:07;;;;;;;9.00;3.50;;;;;;;;;;4976380;28;20068;-67
2022/07/16 00:29:33;;;;;;;9.93;3.65;;;;;;;;;;4976342;28;20105;-68
2022/07/16 00:31:59;;;;;;;7.13;3.50;;;;;;;;;;4976349;28;20031;-68
2022/07/16 00:34:24;;;;;;;8.02;3.17;;;;;;;;;;4976251;28;20041;-67
2022/07/16 00:36:50;;;;;;;9.30;3.17;;;;;;;;;;4976391;28;20038;-68
2022/07/16 00:39:17;;;;;;;5.30;3.13;;;;;;;;;;4976277;28;20035;-66
2022/07/16 00:41:46;;;;;;;12.63;3.53;;;;;;;;;;4976138;28;20039;-67
2022/07/16 00:44:15;;;;;;;12.95;3.40;;;;;;;;;;4975813;28;20066;-67
2022/07/16 00:46:43;;;;;;;8.40;2.80;;;;;;;;;;4976085;28;20035;-70
2022/07/16 00:49:09;;;;;;;8.23;3.28;;;;;;;;;;4976321;28;20043;-68
2022/07/16 00:51:36;;;;;;;4.35;3.17;;;;;;;;;;4976169;28;20027;-76
2022/07/16 00:54:03;;;;;;;7.68;3.17;;;;;;;;;;4976402;28;20084;-74
2022/07/16 00:56:29;;;;;;;8.80;3.28;;;;;;;;;;4975389;28;20409;-73
2022/07/16 00:58:55;;;;;;;8.82;3.45;;;;;;;;;;4975349;28;20046;-71
2022/07/16 01:01:22;;;;;;;6.85;2.90;;;;;;;;;;4975672;28;20545;-69
2022/07/16 01:03:48;;;;;;;8.48;3.25;;;;;;;;;;4968227;28;20018;-70
2022/07/16 01:06:15;;;;;;;5.05;2.83;;;;;;;;;;4975719;28;20046;-69
2022/07/16 01:08:47;;;;;;;6.47;3.20;;;;;;;;;;4975633;28;20039;-70
2022/07/16 01:11:16;;;;;;;5.68;2.65;;;;;;;;;;4975567;28;20068;-70
2022/07/16 01:13:45;;;;;;;8.77;2.38;;;;;;;;;;4975640;28;20038;-71
2022/07/16 01:16:11;;;;;;;4.88;2.08;;;;;;;;;;4975489;28;20067;-69
2022/07/16 01:18:39;;;;;;;6.07;1.85;;;;;;;;;;4975451;28;20032;-69
2022/07/16 01:21:05;;;;;;;3.50;1.60;;;;;;;;;;4975419;28;20035;-67
2022/07/16 01:23:31;;;;;;;2.95;1.65;;;;;;;;;;4975215;28;20022;-67
2022/07/16 01:25:57;;;;;;;3.83;1.98;;;;;;;;;;4974566;28;20035;-67
2022/07/16 01:28:23;;;;;;;3.83;2.00;;;;;;;;;;4975196;28;20022;-67
2022/07/16 01:30:50;;;;;;;4.00;2.13;;;;;;;;;;4975317;28;20077;-68
2022/07/16 01:33:29;;;;;;;16.67;3.28;;;;;;;;;;4975396;28;20027;-69
2022/07/16 01:36:08;;;;;;;5.97;2.00;;;;;;;;;;4975083;28;20086;-67
2022/07/16 01:38:36;;;;;;;10.82;2.72;;;;;;;;;;4974919;28;20049;-66
2022/07/16 01:41:02;;;;;;;11.02;3.00;;;;;;;;;;4975056;28;20081;-67
2022/07/16 01:43:29;;;;;;;7.68;2.80;;;;;;;;;;4975108;28;20043;-67
2022/07/16 01:45:56;;;;;;;6.95;3.38;;;;;;;;;;4975255;28;20474;-67
2022/07/16 01:48:23;;;;;;;9.75;2.70;;;;;;;;;;4974963;28;20034;-67
2022/07/16 01:50:49;;;;;;;5.25;2.85;;;;;;;;;;4975205;28;20097;-67
2022/07/16 01:53:15;;;;;;;7.30;2.67;;;;;;;;;;4975105;28;20039;-67
2022/07/16 01:55:41;;;;;;;4.97;2.53;;;;;;;;;;4974774;28;20549;-70
2022/07/16 01:58:09;;;;;;;9.45;2.65;;;;;;;;;;4974593;28;20101;-67
2022/07/16 02:00:37;;;;;;;8.65;3.20;;;;;;;;;;4974277;28;20031;-68
2022/07/16 02:03:04;;;;;;;11.95;3.50;;;;;;;;;;4974158;28;20027;-67
2022/07/16 02:05:30;;;;;;;10.55;3.28;;;;;;;;;;4974307;28;20098;-69
2022/07/16 02:07:56;;;;;;;7.10;2.95;;;;;;;;;;4974806;28;20109;-67
2022/07/16 02:10:22;;;;;;;4.03;2.83;;;;;;;;;;4974593;28;20489;-67
2022/07/16 02:12:48;;;;;;;7.40;2.95;;;;;;;;;;4974653;28;20105;-65
2022/07/16 02:15:14;;;;;;;10.40;3.72;;;;;;;;;;4974495;28;20026;-66
2022/07/16 02:17:40;;;;;;;7.00;3.03;;;;;;;;;;4974356;28;20034;-67
2022/07/16 02:20:07;;;;;;;13.40;3.17;;;;;;;;;;4974185;28;20117;-68
2022/07/16 02:22:34;;;;;;;7.97;3.47;;;;;;;;;;4973974;28;20023;-66
2022/07/16 02:25:00;;;;;;;7.25;2.90;;;;;;;;;;4973933;28;20497;-65
2022/07/16 02:27:26;;;;;;;10.65;2.90;;;;;;;;;;4974232;28;20027;-65
2022/07/16 02:29:52;;;;;;;17.63;3.45;;;;;;;;;;4974352;28;20033;-66
2022/07/16 02:32:18;;;;;;;7.60;2.65;;;;;;;;;;4973949;28;20310;-66
2022/07/16 02:34:44;;;;;;;7.90;2.40;;;;;;;;;;4974058;28;20470;-68
2022/07/16 02:37:09;;;;;;;6.25;2.70;;;;;;;;;;4973264;28;20445;-66
2022/07/16 02:39:35;;;;;;;6.05;2.60;;;;;;;;;;4974038;28;20054;-70
2022/07/16 02:42:01;;;;;;;6.07;2.70;;;;;;;;;;4972500;28;20110;-70
2022/07/16 02:44:27;;;;;;;7.13;3.00;;;;;;;;;;4973758;28;20077;-68
2022/07/16 02:46:53;;;;;;;8.77;2.83;;;;;;;;;;4973687;28;20034;-68
2022/07/16 02:49:18;;;;;;;8.57;2.70;;;;;;;;;;4973365;28;20094;-71
2022/07/16 02:51:44;;;;;;;9.40;3.35;;;;;;;;;;4973679;28;20478;-66
2022/07/16 02:54:10;;;;;;;10.52;3.13;;;;;;;;;;4973470;28;20023;-66
2022/07/16 02:56:37;;;;;;;6.13;3.05;;;;;;;;;;4973571;28;20042;-67
2022/07/16 02:59:03;;;;;;;7.57;2.90;;;;;;;;;;4973272;28;20035;-66
2022/07/16 03:01:29;;;;;;;5.40;2.58;;;;;;;;;;4973517;28;20109;-66
2022/07/16 03:03:55;;;;;;;4.53;2.35;;;;;;;;;;4973736;28;20033;-66
2022/07/16 03:06:20;;;;;;;3.88;2.30;;;;;;;;;;4973601;28;20065;-67
2022/07/16 03:08:46;;;;;;;10.20;2.80;;;;;;;;;;4973648;28;20152;-66
2022/07/16 03:11:12;;;;;;;5.82;2.65;;;;;;;;;;4973665;28;20035;-66
2022/07/16 03:13:38;;;;;;;8.18;2.60;;;;;;;;;;4973203;28;20026;-66
2022/07/16 03:16:04;;;;;;;5.45;2.53;;;;;;;;;;4973285;28;20050;-65
2022/07/16 03:18:30;;;;;;;3.03;1.75;;;;;;;;;;4973021;28;20035;-66
2022/07/16 03:20:56;;;;;;;6.55;2.45;;;;;;;;;;4973284;28;20035;-65
2022/07/16 03:23:22;;;;;;;5.63;2.63;;;;;;;;;;4972967;28;20102;-65
2022/07/16 03:25:48;;;;;;;4.85;2.08;;;;;;;;;;4973441;28;20843;-66
2022/07/16 03:28:13;;;;;;;6.88;2.10;;;;;;;;;;4971876;28;20570;-65
2022/07/16 03:30:39;;;;;;;5.88;2.83;;;;;;;;;;4973128;28;20047;-68
2022/07/16 03:33:06;;;;;;;5.10;2.40;;;;;;;;;;4973287;28;20098;-68
2022/07/16 03:35:32;;;;;;;5.65;2.58;;;;;;;;;;4973048;28;20038;-65
2022/07/16 03:40:43;;;;;;;6.75;2.97;;;;;;;;;;4971649;28;20050;-66
2022/07/16 03:43:09;;;;;;;5.60;2.80;;;;;;;;;;4956884;28;20024;-65
2022/07/16 03:45:35;;;;;;;10.88;3.10;;;;;;;;;;4953300;28;20035;-66
2022/07/16 03:48:00;;;;;;;6.13;3.30;;;;;;;;;;4954761;28;20034;-67
2022/07/16 03:50:27;;;;;;;8.05;2.90;;;;;;;;;;4958576;29;20031;-66
2022/07/16 03:52:52;;;;;;;8.63;3.10;;;;;;;;;;4958412;29;20430;-66
2022/07/16 03:55:18;;;;;;;5.78;2.95;;;;;;;;;;4958555;29;20031;-68
2022/07/16 03:57:44;;;;;;;6.45;3.17;;;;;;;;;;4962876;28;20138;-67
2022/07/16 04:00:11;;;;;;;5.13;2.63;;;;;;;;;;4961698;28;20147;-68
2022/07/16 04:02:37;;;;;;;6.40;2.95;;;;;;;;;;4958375;29;20027;-66
2022/07/16 04:05:03;;;;;;;11.73;2.90;;;;;;;;;;4967665;28;20034;-65
2022/07/16 04:07:29;;;;;;;13.18;3.58;;;;;;;;;;4970003;28;20478;-67
2022/07/16 04:09:55;;;;;;;5.60;2.97;;;;;;;;;;4958252;29;20546;-67
2022/07/16 04:12:24;;;;;;;8.20;2.65;;;;;;;;;;4958045;28;20126;-66
2022/07/16 04:14:50;;;;;;;4.43;2.78;;;;;;;;;;4958142;28;20507;-66
2022/07/16 04:17:16;;;;;;;6.93;4.75;;;;;;;;;;4958174;29;20479;-66
2022/07/16 04:19:42;;;;;;;6.65;3.03;;;;;;;;;;4958208;28;20069;-68
2022/07/16 04:22:08;;;;;;;13.52;3.63;;;;;;;;;;4957858;28;20042;-74
2022/07/16 04:24:34;;;;;;;7.38;2.70;;;;;;;;;;4958150;28;20031;-67
2022/07/16 04:27:00;;;;;;;5.43;2.72;;;;;;;;;;4957917;28;20038;-67
2022/07/16 04:29:25;;;;;;;6.22;2.58;;;;;;;;;;4958059;29;20054;-69
2022/07/16 04:31:51;;;;;;;8.25;2.70;;;;;;;;;;4958435;28;20031;-69
2022/07/16 04:34:17;;;;;;;6.00;3.00;;;;;;;;;;4970849;28;20034;-68
2022/07/16 04:36:44;;;;;;;5.43;2.70;;;;;;;;;;4977212;28;20417;-67
2022/07/16 04:39:10;;;;;;;7.07;2.58;;;;;;;;;;4977291;28;20049;-66
2022/07/16 04:41:36;;;;;;;7.68;2.63;;;;;;;;;;4977038;28;20026;-66
2022/07/16 04:44:02;;;;;;;4.68;2.60;;;;;;;;;;4976088;28;20113;-65
2022/07/16 04:46:28;;;;;;;6.65;2.85;;;;;;;;;;4975140;28;20035;-66
2022/07/16 04:48:54;;;;;;;5.43;2.90;;;;;;;;;;4969739;28;20031;-66
2022/07/16 04:51:19;;;;;;;4.32;2.20;;;;;;;;;;4974522;28;20085;-66
2022/07/16 04:53:45;;;;;;;6.25;2.80;;;;;;;;;;4976474;28;21224;-66
2022/07/16 04:56:11;;;;;;;9.60;2.80;;;;;;;;;;4976451;28;20031;-65
2022/07/16 04:58:37;;;;;;;4.90;2.60;;;;;;;;;;4976855;28;20039;-66
2022/07/16 05:01:03;;;;;;;5.57;2.90;;;;;;;;;;4975998;28;20046;-66
2022/07/16 05:03:29;;;;;;;7.97;3.15;;;;;;;;;;4976583;28;20129;-68
2022/07/16 05:05:54;;;;;;;8.48;2.80;;;;;;;;;;4975035;28;20101;-66
2022/07/16 05:08:20;;;;;;;6.07;3.00;;;;;;;;;;4975852;28;20039;-66
2022/07/16 05:10:46;;;;;;;4.72;2.63;;;;;;;;;;4976370;28;20027;-65
2022/07/16 05:13:12;;;;;;;7.40;2.80;;;;;;;;;;4976637;28;20046;-66
2022/07/16 05:15:38;;;;;;;7.82;2.80;;;;;;;;;;4975132;28;20031;-67
2022/07/16 05:18:04;;;;;;;6.78;2.78;;;;;;;;;;4976322;28;20030;-66
2022/07/16 05:20:30;;;;;;;5.78;2.40;;;;;;;;;;4976113;28;20031;-67
2022/07/16 05:22:57;;;;;;;6.22;2.88;;;;;;;;;;4976342;28;20031;-66
2022/07/16 05:25:23;;;;;;;4.88;2.58;;;;;;;;;;4976230;28;20049;-66
2022/07/16 05:27:49;;;;;;;10.38;2.92;;;;;;;;;;4976197;28;20035;-66
2022/07/16 05:30:15;;;;;;;10.18;2.97;;;;;;;;;;4976311;28;20031;-64
2022/07/16 05:32:43;;;;;;;5.00;2.53;;;;;;;;;;4976268;28;20050;-66
2022/07/16 05:35:10;;;;;;;5.57;2.60;;;;;;;;;;4976276;28;20524;-65
2022/07/16 05:37:36;;;;;;;9.70;2.70;;;;;;;;;;4976187;28;20043;-66
2022/07/16 05:40:03;;;;;;;7.63;3.13;;;;;;;;;;4976117;28;20031;-65
2022/07/16 05:42:28;;;;;;;4.85;2.40;;;;;;;;;;4976297;28;20071;-67
2022/07/16 05:44:55;;;;;;;6.65;2.90;;;;;;;;;;4976117;28;20030;-66
2022/07/16 05:47:20;;;;;;;9.25;2.80;;;;;;;;;;4975793;28;20043;-66
2022/07/16 05:49:46;;;;;;;6.68;2.72;;;;;;;;;;4975787;28;20037;-70
2022/07/16 05:52:12;;;;;;;4.15;2.30;;;;;;;;;;4975843;28;20043;-68
2022/07/16 05:54:39;;;;;;;7.15;2.30;;;;;;;;;;4975861;28;20027;-68
2022/07/16 05:57:05;;;;;;;5.63;2.30;;;;;;;;;;4975761;28;20082;-67
2022/07/16 05:59:31;;;;;;;5.88;2.30;;;;;;;;;;4975489;28;20042;-69
2022/07/16 06:01:57;;;;;;;5.18;2.45;;;;;;;;;;4975452;28;20035;-68
2022/07/16 06:04:22;;;;;;;3.22;1.92;;;;;;;;;;4975551;28;20033;-68
2022/07/16 06:06:48;;;;;;;3.60;2.20;;;;;;;;;;4975574;28;20043;-68
2022/07/16 06:09:15;;;;;;;9.68;2.63;;;;;;;;;;4975281;28;20463;-72
2022/07/16 06:11:41;;;;;;;5.85;2.22;;;;;;;;;;4975163;28;20125;-69
2022/07/16 06:14:07;;;;;;;3.55;2.10;;;;;;;;;;4975047;28;20022;-68
2022/07/16 06:16:33;;;;;;;5.88;2.25;;;;;;;;;;4975132;28;20062;-67
2022/07/16 06:18:59;;;;;;;5.20;2.30;;;;;;;;;;4975418;28;20491;-70
2022/07/16 06:21:25;;;;;;;5.80;2.00;;;;;;;;;;4975170;28;20039;-68
2022/07/16 06:23:50;;;;;;;7.68;2.45;;;;;;;;;;4974943;28;20045;-69
2022/07/16 06:26:16;;;;;;;9.32;1.80;;;;;;;;;;4974943;28;20086;-68
2022/07/16 06:28:43;;;;;;;9.15;2.50;;;;;;;;;;4967504;28;20023;-70
2022/07/16 06:31:09;;;;;;;9.85;2.88;;;;;;;;;;4962051;28;20046;-68
2022/07/16 06:33:35;;;;;;;6.03;2.45;;;;;;;;;;4955336;29;20196;-68
2022/07/16 06:36:01;;;;;;;10.80;2.70;;;;;;;;;;4955341;29;20552;-68
2022/07/16 06:38:27;;;;;;;6.53;1.98;;;;;;;;;;4955353;29;20062;-71
2022/07/16 06:40:52;;;;;;;7.07;2.63;;;;;;;;;;4955173;29;20046;-71
2022/07/16 06:43:18;;;;;;;6.85;2.00;;;;;;;;;;4955203;29;20031;-71
2022/07/16 06:45:44;;;;;;;5.95;2.22;;;;;;;;;;4953783;29;20035;-72
2022/07/16 06:48:10;;;;;;;7.78;2.63;;;;;;;;;;4955329;29;20039;-71
2022/07/16 06:50:36;;;;;;;9.88;2.10;;;;;;;;;;4961570;28;20166;-71
2022/07/16 06:53:02;;;;;;;5.97;2.28;;;;;;;;;;4973598;28;20101;-73
2022/07/16 06:55:28;;;;;;;4.13;1.95;;;;;;;;;;4972967;28;20046;-72
2022/07/16 06:57:54;;;;;;;4.80;1.95;;;;;;;;;;4975982;28;20074;-71
2022/07/16 07:00:20;;;;;;;5.65;1.80;;;;;;;;;;4962479;28;20086;-71
2022/07/16 07:02:46;;;;;;;10.23;2.40;;;;;;;;;;4962053;28;20030;-71
2022/07/16 07:05:12;;;;;;;4.85;1.70;;;;;;;;;;4962928;28;20042;-70
2022/07/16 07:07:37;;;;;;;8.75;2.13;;;;;;;;;;4953663;28;20150;-70
2022/07/16 07:10:04;;;;;;;4.78;2.38;;;;;;;;;;4955969;28;20118;-69
2022/07/16 07:12:30;;;;;;;5.30;1.90;;;;;;;;;;4963331;28;20044;-71
2022/07/16 07:14:56;;;;;;;7.15;2.58;;;;;;;;;;4967513;28;20038;-71
2022/07/16 07:17:22;;;;;;;5.97;2.50;;;;;;;;;;4967326;28;20027;-70
2022/07/16 07:19:48;;;;;;;6.60;2.10;;;;;;;;;;4953867;28;20046;-70
2022/07/16 07:22:13;;;;;;;8.93;2.00;;;;;;;;;;4965176;28;20069;-70
2022/07/16 07:24:39;;;;;;;14.02;2.47;;;;;;;;;;4972749;28;20094;-70
2022/07/16 07:27:05;;;;;;;5.15;2.60;;;;;;;;;;4972462;28;20027;-69
2022/07/16 07:29:31;;;;;;;6.55;2.10;;;;;;;;;;4972233;28;20051;-69
2022/07/16 07:31:58;;;;;;;6.82;2.40;;;;;;;;;;4971990;28;20085;-69
2022/07/16 07:34:24;;;;;;;7.00;3.50;;;;;;;;;;4972510;28;20066;-73
2022/07/16 07:36:50;;;;;;;7.38;2.30;;;;;;;;;;4971849;28;20448;-69
2022/07/16 07:39:16;;;;;;;8.52;2.65;;;;;;;;;;4969794;28;20055;-71
2022/07/16 07:41:42;;;;;;;6.95;2.10;;;;;;;;;;4972306;28;20053;-70
2022/07/16 07:44:08;;;;;;;10.70;2.72;;;;;;;;;;4971715;28;20042;-70
2022/07/16 07:46:33;;;;;;;8.77;2.40;;;;;;;;;;4972690;28;20026;-68
2022/07/16 07:48:59;;;;;;;6.90;2.33;;;;;;;;;;4987139;28;20034;-70
2022/07/16 07:51:25;;;;;;;4.85;2.40;;;;;;;;;;4957946;28;20023;-71
2022/07/16 07:53:51;;;;;;;4.72;2.40;;;;;;;;;;4969397;28;20033;-70
2022/07/16 07:56:16;;;;;;;4.78;2.42;;;;;;;;;;4972209;28;20426;-71
2022/07/16 07:58:42;;;;;;;6.88;2.90;;;;;;;;;;4971690;28;20402;-70
2022/07/16 08:01:08;;;;;;;6.47;2.13;;;;;;;;;;4972115;28;20042;-72
2022/07/16 08:03:34;;;;;;;7.03;2.42;;;;;;;;;;4971776;28;20054;-71
2022/07/16 08:06:00;;;;;;;5.85;2.30;;;;;;;;;;4971417;28;20023;-70
2022/07/16 08:08:26;;;;;;;5.03;2.70;;;;;;;;;;4969084;28;20572;-72
2022/07/16 08:10:52;;;;;;;5.93;2.30;;;;;;;;;;4953495;28;20024;-72
2022/07/16 08:13:18;;;;;;;5.35;2.08;;;;;;;;;;4961813;28;20121;-72
2022/07/16 08:15:45;;;;;;;9.70;2.92;;;;;;;;;;4954977;28;20374;-71
2022/07/16 08:18:10;;;;;;;4.05;2.20;;;;;;;;;;4952737;29;20097;-71
2022/07/16 08:20:38;;;;;;;5.82;2.20;;;;;;;;;;4952498;29;20031;-71
2022/07/16 08:23:04;;;;;;;4.30;1.80;;;;;;;;;;4970430;28;20390;-69
2022/07/16 08:25:45;;;;;;;6.38;2.10;;;;;;;;;;4971796;28;20099;-69
2022/07/16 08:28:12;;;;;;;3.70;2.13;;;;;;;;;;4971475;28;20118;-69
2022/07/16 08:30:38;;;;;;;7.80;2.35;;;;;;;;;;4971026;28;20023;-72
2022/07/16 08:33:04;;;;;;;6.75;2.28;;;;;;;;;;4970281;28;20061;-70
2022/07/16 08:35:30;;;;;;;7.20;2.17;;;;;;;;;;4970370;28;20019;-69
2022/07/16 08:37:56;;;;;;;6.65;1.98;;;;;;;;;;4974802;28;20026;-70
2022/07/16 08:40:23;;;;;;;6.60;2.22;;;;;;;;;;4975307;28;20401;-70
2022/07/16 08:42:50;;;;;;;5.00;2.20;;;;;;;;;;4974615;28;20042;-67
2022/07/16 08:45:19;;;;;;;3.58;2.08;;;;;;;;;;4974695;28;20026;-70
2022/07/16 08:47:44;;;;;;;3.50;1.88;;;;;;;;;;4972650;28;20038;-71
2022/07/16 08:50:14;;;;;;;5.20;2.00;;;;;;;;;;4973618;28;20101;-69
2022/07/16 08:52:48;;;;;;;3.38;1.83;;;;;;;;;;4956170;28;20097;-70
2022/07/16 08:55:14;;;;;;;3.05;1.80;;;;;;;;;;4956097;28;20106;-70
2022/07/16 08:57:41;;;;;;;4.15;2.08;;;;;;;;;;4955529;28;20126;-70
2022/07/16 09:00:13;;;;;;;7.93;1.80;;;;;;;;;;4955445;28;20094;-70
2022/07/16 09:02:40;;;;;;;6.30;2.17;;;;;;;;;;4954229;28;20039;-71
2022/07/16 09:05:07;;;;;;;4.80;2.10;;;;;;;;;;4954894;28;20027;-70
2022/07/16 09:07:33;;;;;;;5.25;1.70;;;;;;;;;;4955934;28;20487;-69
2022/07/16 09:09:59;;;;;;;7.78;2.10;;;;;;;;;;4955525;28;20027;-70
2022/07/16 09:12:35;;;;;;;4.60;2.20;;;;;;;;;;4954759;28;20502;-69
2022/07/16 09:15:32;;;;;;;5.75;2.15;;;;;;;;;;4955633;28;20039;-70
2022/07/16 09:18:07;;;;;;;3.70;1.75;;;;;;;;;;4949194;29;20078;-71
2022/07/16 09:20:32;;;;;;;5.32;1.85;;;;;;;;;;4955485;28;20031;-69
2022/07/16 09:22:58;;;;;;;3.50;1.75;;;;;;;;;;4955176;28;20027;-69
2022/07/16 09:25:24;;;;;;;3.35;1.85;;;;;;;;;;4962469;28;20088;-69
2022/07/16 09:28:00;;;;;;;7.90;1.90;;;;;;;;;;4975014;28;20046;-72
2022/07/16 09:30:27;;;;;;;2.60;1.60;;;;;;;;;;4975581;28;20544;-73
2022/07/16 09:32:54;;;;;;;3.13;1.80;;;;;;;;;;4975513;28;20080;-70
2022/07/16 09:35:21;;;;;;;3.25;1.80;;;;;;;;;;4975369;28;20430;-70
2022/07/16 09:37:52;;;;;;;4.30;1.75;;;;;;;;;;4968455;28;20078;-72
2022/07/16 09:40:40;;;;;;;4.05;2.00;;;;;;;;;;4956357;28;20039;-69
2022/07/16 09:43:15;;;;;;;4.90;1.80;;;;;;;;;;4956340;28;20499;-72
2022/07/16 09:45:49;;;;;;;2.85;1.90;;;;;;;;;;4955981;28;20509;-74
2022/07/16 09:48:25;;;;;;;7.80;2.13;;;;;;;;;;4956067;28;20407;-73
2022/07/16 09:51:12;;;;;;;3.28;1.77;;;;;;;;;;4955500;28;20039;-73
2022/07/16 09:53:40;;;;;;;4.55;1.80;;;;;;;;;;4955711;29;20505;-70
2022/07/16 09:56:08;;;;;;;4.22;2.00;;;;;;;;;;4955620;28;20034;-72
2022/07/16 09:58:36;;;;;;;3.30;1.60;;;;;;;;;;4955782;28;20066;-71
2022/07/16 10:01:03;;;;;;;3.08;2.00;;;;;;;;;;4955848;28;20453;-73
2022/07/16 10:03:29;;;;;;;4.78;2.00;;;;;;;;;;4963939;28;20030;-73
2022/07/16 10:05:56;;;;;;;14.65;2.88;;;;;;;;;;4975184;28;20026;-74
2022/07/16 10:08:23;;;;;;;5.28;1.83;;;;;;;;;;4975120;28;20058;-71
2022/07/16 10:10:50;;;;;;;4.43;1.65;;;;;;;;;;4975051;28;20088;-71
2022/07/16 10:13:18;;;;;;;2.45;1.65;;;;;;;;;;4974837;28;20039;-72
2022/07/16 10:15:46;;;;;;;2.55;1.67;;;;;;;;;;4969114;28;20466;-72
2022/07/16 10:18:40;;;;;;;8.07;2.03;;;;;;;;;;4955427;28;20039;-71
2022/07/16 10:21:07;;;;;;;2.60;1.65;;;;;;;;;;4972868;28;20031;-73
2022/07/16 10:23:35;;;;;;;2.03;1.52;;;;;;;;;;4973333;28;20030;-74
2022/07/16 10:26:06;;;;;;;5.57;1.90;;;;;;;;;;4974246;28;20047;-71
2022/07/16 10:28:55;;;;;;;3.90;1.45;;;;;;;;;;4973917;28;20034;-71
2022/07/16 10:31:37;;;;;;;3.30;1.80;;;;;;;;;;4974896;28;20058;-70
2022/07/16 10:34:15;;;;;;;3.60;1.77;;;;;;;;;;4974956;28;20367;-71
2022/07/16 10:36:50;;;;;;;6.15;1.80;;;;;;;;;;4975113;28;20023;-70
2022/07/16 10:39:17;;;;;;;4.07;1.65;;;;;;;;;;4974736;28;20097;-70
2022/07/16 10:42:03;;;;;;;2.28;1.65;;;;;;;;;;4974888;28;20030;-71
2022/07/16 10:44:49;;;;;;;4.63;1.67;;;;;;;;;;4974721;28;20034;-70
2022/07/16 10:47:16;;;;;;;3.33;1.35;;;;;;;;;;4974636;28;20038;-69
2022/07/16 10:49:43;;;;;;;3.35;1.60;;;;;;;;;;4974598;28;20026;-70
2022/07/16 10:52:14;;;;;;;7.07;1.92;;;;;;;;;;4974400;28;20066;-69
2022/07/16 10:55:04;;;;;;;7.47;1.83;;;;;;;;;;4974534;28;20041;-70
2022/07/16 10:57:36;;;;;;;5.65;1.88;;;;;;;;;;4966850;28;20394;-70
2022/07/16 11:00:06;;;;;;;2.95;1.77;;;;;;;;;;4974220;28;20039;-69
2022/07/16 11:02:42;;;;;;;7.40;3.22;;;;;;;;;;4974647;28;20064;-69
2022/07/16 11:05:08;;;;;;;5.30;2.28;;;;;;;;;;4974310;28;20034;-69
2022/07/16 11:07:36;;;;;;;7.10;1.42;;;;;;;;;;4974710;28;20050;-69
2022/07/16 11:10:03;;;;;;;5.78;3.10;;;;;;;;;;4974619;28;20113;-70
2022/07/16 11:12:32;;;;;;;5.40;1.77;;;;;;;;;;4974336;28;20307;-71
2022/07/16 11:15:00;;;;;;;1.90;1.27;;;;;;;;;;4974172;28;20034;-71
2022/07/16 11:17:29;;;;;;;5.95;3.60;;;;;;;;;;4974134;28;20041;-70
2022/07/16 11:19:57;;;;;;;39.47;27.10;;;;;;;;;;4974272;28;20181;-71
2022/07/16 11:22:28;;;;;;;3.55;1.70;;;;;;;;;;4974250;28;20034;-69
2022/07/16 11:25:00;;;;;;;20.10;15.35;;;;;;;;;;4974019;28;20042;-73
2022/07/16 11:27:39;;;;;;;9.68;5.85;;;;;;;;;;4974257;28;20045;-71
2022/07/16 11:30:08;;;;;;;3.20;2.17;;;;;;;;;;4973920;28;20045;-73
2022/07/16 11:32:45;;;;;;;4.32;2.17;;;;;;;;;;4974309;28;20388;-71
2022/07/16 11:35:12;;;;;;;6.70;4.78;;;;;;;;;;4974047;28;20053;-71
2022/07/16 11:37:55;;;;;;;5.18;3.30;;;;;;;;;;4973978;28;20115;-75
2022/07/16 11:40:42;;;;;;;4.65;1.70;;;;;;;;;;4973956;28;20050;-76
2022/07/16 11:43:08;;;;;;;7.03;3.33;;;;;;;;;;4973942;28;20079;-74
2022/07/16 11:45:45;;;;;;;3.58;1.83;;;;;;;;;;4973774;28;20398;-70
2022/07/16 11:48:16;;;;;;;3.75;1.75;;;;;;;;;;4973900;28;20441;-73
2022/07/16 11:50:44;;;;;;;10.90;1.92;;;;;;;;;;4973892;28;20065;-70
2022/07/16 11:53:11;;;;;;;6.28;1.77;;;;;;;;;;4974075;28;20132;-72
2022/07/16 11:55:55;;;;;;;1.90;1.48;;;;;;;;;;4973967;28;20031;-74
2022/07/16 11:58:21;;;;;;;3.30;1.50;;;;;;;;;;4954448;28;20062;-72
2022/07/16 12:00:48;;;;;;;4.25;1.20;;;;;;;;;;4954487;28;20478;-74
2022/07/16 12:03:15;;;;;;;3.72;1.30;;;;;;;;;;4954292;28;20393;-71
2022/07/16 12:05:41;;;;;;;4.72;3.03;;;;;;;;;;4954224;28;20046;-73
2022/07/16 12:08:11;;;;;;;2.63;2.33;;;;;;;;;;4954308;28;20451;-70
2022/07/16 12:10:37;;;;;;;5.97;2.20;;;;;;;;;;4957128;28;20031;-74
2022/07/16 12:13:09;;;;;;;4.65;1.88;;;;;;;;;;4958419;28;20086;-74
2022/07/16 12:15:55;;;;;;;4.95;2.25;;;;;;;;;;4958310;28;20035;-74
2022/07/16 12:18:23;;;;;;;3.65;1.48;;;;;;;;;;4957957;28;20045;-71
2022/07/16 12:20:49;;;;;;;5.10;1.50;;;;;;;;;;4958141;28;20183;-72
2022/07/16 12:23:31;;;;;;;3.30;1.45;;;;;;;;;;4958128;28;20114;-72
2022/07/16 12:26:02;;;;;;;1.70;1.30;;;;;;;;;;4958131;29;20122;-70
2022/07/16 12:28:29;;;;;;;3.17;1.35;;;;;;;;;;4958199;28;20391;-69
2022/07/16 12:30:55;;;;;;;3.35;1.50;;;;;;;;;;4958122;28;20098;-69
2022/07/16 12:33:24;;;;;;;3.50;1.50;;;;;;;;;;4957948;28;20078;-70
2022/07/16 12:36:00;;;;;;;1.98;1.50;;;;;;;;;;4957868;28;20125;-69
2022/07/16 12:38:44;;;;;;;3.28;1.65;;;;;;;;;;4957582;28;20352;-69
2022/07/16 12:41:13;;;;;;;4.72;2.20;;;;;;;;;;4957675;28;20031;-69
2022/07/16 12:43:40;;;;;;;2.38;1.52;;;;;;;;;;4957848;28;20027;-71
2022/07/16 12:46:08;;;;;;;3.85;1.90;;;;;;;;;;4958005;28;20031;-70
2022/07/16 12:48:42;;;;;;;2.60;1.52;;;;;;;;;;4957779;28;20023;-71
2022/07/16 12:51:09;;;;;;;5.93;2.05;;;;;;;;;;4957486;28;20503;-69
2022/07/16 12:53:35;;;;;;;6.10;1.60;;;;;;;;;;4957185;28;20107;-72
2022/07/16 12:58:49;;;;;;;4.22;1.60;;;;;;;;;;4976686;28;20038;-71
2022/07/16 13:01:19;;;;;;;3.33;1.58;;;;;;;;;;4976746;28;20034;-75
2022/07/16 13:03:47;;;;;;;3.55;2.00;;;;;;;;;;4976620;28;20054;-70
2022/07/16 13:06:13;;;;;;;5.20;1.85;;;;;;;;;;4976762;28;20037;-72
2022/07/16 13:08:41;;;;;;;3.80;1.60;;;;;;;;;;4976657;28;20109;-73
2022/07/16 13:11:08;;;;;;;2.90;1.60;;;;;;;;;;4976533;28;20142;-73
2022/07/16 13:13:36;;;;;;;5.10;1.90;;;;;;;;;;4976544;28;20086;-76
2022/07/16 13:16:03;;;;;;;2.28;1.33;;;;;;;;;;4976495;28;20033;-76
2022/07/16 13:18:29;;;;;;;5.75;1.50;;;;;;;;;;4976264;28;20054;-76
2022/07/16 13:20:55;;;;;;;3.47;1.60;;;;;;;;;;4973892;28;20026;-77
2022/07/16 13:23:21;;;;;;;4.65;1.77;;;;;;;;;;4956899;28;20046;-75
2022/07/16 13:25:49;;;;;;;3.63;1.63;;;;;;;;;;4956885;29;20102;-75
2022/07/16 13:28:17;;;;;;;4.30;1.65;;;;;;;;;;4956681;28;20043;-72
2022/07/16 13:30:44;;;;;;;4.65;1.80;;;;;;;;;;4956603;28;20073;-75
2022/07/16 13:33:10;;;;;;;6.38;1.67;;;;;;;;;;4956672;28;20035;-72
2022/07/16 13:35:39;;;;;;;3.05;1.55;;;;;;;;;;4956710;28;20035;-72
2022/07/16 13:38:05;;;;;;;3.22;1.73;;;;;;;;;;4956681;28;20118;-71
2022/07/16 13:40:31;;;;;;;1.90;1.50;;;;;;;;;;4956504;28;20106;-72
2022/07/16 13:42:57;;;;;;;4.53;1.55;;;;;;;;;;4956558;28;20043;-75
2022/07/16 13:45:23;;;;;;;4.25;1.50;;;;;;;;;;4956332;28;20159;-74
2022/07/16 13:47:49;;;;;;;2.90;1.40;;;;;;;;;;4955377;29;20054;-73
2022/07/16 13:50:16;;;;;;;4.25;1.52;;;;;;;;;;4956436;28;20028;-71
2022/07/16 13:52:42;;;;;;;2.83;1.42;;;;;;;;;;4955033;29;20034;-72
2022/07/16 13:55:09;;;;;;;3.60;1.38;;;;;;;;;;4956473;29;20119;-73
2022/07/16 14:00:21;;;;;;;2.58;1.50;;;;;;;;;;4956464;28;20505;-74
2022/07/16 14:02:47;;;;;;;4.72;1.38;;;;;;;;;;4956280;28;20027;-74
2022/07/16 14:05:13;;;;;;;2.45;1.42;;;;;;;;;;4957010;28;20035;-73
2022/07/16 14:07:39;;;;;;;3.25;1.52;;;;;;;;;;4963440;29;20058;-69
2022/07/16 14:10:06;;;;;;;3.28;1.60;;;;;;;;;;4957451;28;20067;-71
2022/07/16 14:12:32;;;;;;;4.30;1.90;;;;;;;;;;4954926;29;20055;-75
2022/07/16 14:14:59;;;;;;;4.78;1.60;;;;;;;;;;4956128;28;20027;-70
2022/07/16 14:17:24;;;;;;;6.32;1.55;;;;;;;;;;4956218;28;20074;-73
2022/07/16 14:19:50;;;;;;;3.67;1.70;;;;;;;;;;4955746;28;20038;-71
2022/07/16 14:22:16;;;;;;;5.05;2.17;;;;;;;;;;4955482;28;20030;-71
2022/07/16 14:24:42;;;;;;;3.45;1.40;;;;;;;;;;4956162;29;20039;-69
2022/07/16 14:27:08;;;;;;;2.38;1.30;;;;;;;;;;4956046;28;20028;-71
2022/07/16 14:29:34;;;;;;;3.72;1.45;;;;;;;;;;4955949;28;20109;-73
2022/07/16 14:32:01;;;;;;;6.28;1.63;;;;;;;;;;4955916;28;20027;-71
2022/07/16 14:34:27;;;;;;;2.67;1.40;;;;;;;;;;4955989;29;20497;-71
2022/07/16 14:36:53;;;;;;;4.70;1.42;;;;;;;;;;4955701;28;20031;-73
2022/07/16 14:39:19;;;;;;;3.20;1.40;;;;;;;;;;4955610;28;20055;-72
2022/07/16 14:41:45;;;;;;;4.80;1.27;;;;;;;;;;4955657;29;20490;-74
2022/07/16 14:44:11;;;;;;;2.92;1.80;;;;;;;;;;4955522;28;20511;-73
2022/07/16 14:46:36;;;;;;;4.35;1.50;;;;;;;;;;4955597;28;20027;-75
2022/07/16 14:49:02;;;;;;;3.17;1.60;;;;;;;;;;4955339;28;20124;-72
2022/07/16 14:51:28;;;;;;;2.00;1.30;;;;;;;;;;4955456;28;20097;-71
2022/07/16 14:53:54;;;;;;;2.63;1.45;;;;;;;;;;4955257;28;20482;-74